sensor_id;sensor_type;location;lat;lon;timestamp;pressure;altitude;pressure_sealevel;temperature;humidity
76046;BME280;64741;41.730;44.788;2024-01-06T00:02:24;991.2;;;21.9;42.1
76046;BME280;64741;41.730;44.788;2024-01-06T00:07:22;991.1;;;21.9;42
76046;BME280;64741;41.730;44.788;2024-01-06T00:12:14;991.2;;;21.9;42.1
76046;BME280;64741;41.730;44.788;2024-01-06T00:16:34;991.1;;;21.9;42.2
76046;BME280;64741;41.730;44.788;2024-01-06T00:22:14;991.3;;;21.9;42.1
76046;BME280;64741;41.730;44.788;2024-01-06T00:27:08;991.4;;;21.9;42.1
76046;BME280;64741;41.730;44.788;2024-01-06T00:32:14;991.5;;;21.9;42.1
76046;BME280;64741;41.730;44.788;2024-01-06T00:37:22;991.5;;;21.9;42
76046;BME280;64741;41.730;44.788;2024-01-06T00:42:26;991.5;;;21.9;41.9
76046;BME280;64741;41.730;44.788;2024-01-06T00:47:12;991.5;;;21.9;42
76046;BME280;64741;41.730;44.788;2024-01-06T00:51:50;991.6;;;21.9;42
76046;BME280;64741;41.730;44.788;2024-01-06T00:57:24;991.6;;;21.9;41.9
76046;BME280;64741;41.730;44.788;2024-01-06T01:02:16;991.7;;;21.9;41.7
76046;BME280;64741;41.730;44.788;2024-01-06T01:07:24;991.8;;;21.9;41.7
76046;BME280;64741;41.730;44.788;2024-01-06T01:12:24;991.8;;;21.9;41.6
76046;BME280;64741;41.730;44.788;2024-01-06T01:17:24;991.8;;;21.9;41.5
76046;BME280;64741;41.730;44.788;2024-01-06T01:22:16;991.8;;;21.9;41.4
76046;BME280;64741;41.730;44.788;2024-01-06T01:27:24;991.8;;;21.8;41.3
76046;BME280;64741;41.730;44.788;2024-01-06T01:32:26;991.8;;;21.8;41.1
76046;BME280;64741;41.730;44.788;2024-01-06T01:37:06;991.9;;;21.8;41.2
76046;BME280;64741;41.730;44.788;2024-01-06T01:42:28;992;;;21.8;41.3
76046;BME280;64741;41.730;44.788;2024-01-06T01:47:16;992.1;;;21.8;41.3
76046;BME280;64741;41.730;44.788;2024-01-06T01:52:28;992.2;;;21.8;41.3
76046;BME280;64741;41.730;44.788;2024-01-06T01:57:23;992.3;;;21.8;41.2
76046;BME280;64741;41.730;44.788;2024-01-06T02:02:20;992.3;;;21.8;41.2
76046;BME280;64741;41.730;44.788;2024-01-06T02:07:06;992.3;;;21.8;41.2
76046;BME280;64741;41.730;44.788;2024-01-06T02:12:22;992.4;;;21.8;41.2
76046;BME280;64741;41.730;44.788;2024-01-06T02:17:24;992.4;;;21.8;41.1
76046;BME280;64741;41.730;44.788;2024-01-06T02:22:22;992.4;;;21.8;41
76046;BME280;64741;41.730;44.788;2024-01-06T02:27:28;992.4;;;21.8;41
76046;BME280;64741;41.730;44.788;2024-01-06T02:32:22;992.5;;;21.8;41
76046;BME280;64741;41.730;44.788;2024-01-06T02:37:26;992.5;;;21.7;40.8
76046;BME280;64741;41.730;44.788;2024-01-06T02:42:14;992.5;;;21.7;40.8
76046;BME280;64741;41.730;44.788;2024-01-06T02:47:24;992.5;;;21.7;40.7
76046;BME280;64741;41.730;44.788;2024-01-06T02:52:24;992.6;;;21.7;40.6
76046;BME280;64741;41.730;44.788;2024-01-06T02:57:14;992.7;;;21.7;40.6
76046;BME280;64741;41.730;44.788;2024-01-06T03:02:22;992.8;;;21.7;40.6
76046;BME280;64741;41.730;44.788;2024-01-06T03:07:20;992.9;;;21.7;40.6
76046;BME280;64741;41.730;44.788;2024-01-06T03:12:20;993;;;21.7;40.7
76046;BME280;64741;41.730;44.788;2024-01-06T03:17:24;993.1;;;21.7;40.8
76046;BME280;64741;41.730;44.788;2024-01-06T03:22:26;993.3;;;21.7;40.8
76046;BME280;64741;41.730;44.788;2024-01-06T03:27:14;993.4;;;21.7;40.8
76046;BME280;64741;41.730;44.788;2024-01-06T03:32:14;993.4;;;21.7;40.9
76046;BME280;64741;41.730;44.788;2024-01-06T03:37:22;993.5;;;21.7;41
76046;BME280;64741;41.730;44.788;2024-01-06T03:42:24;993.7;;;21.7;41.1
76046;BME280;64741;41.730;44.788;2024-01-06T03:47:26;993.9;;;21.7;41.1
76046;BME280;64741;41.730;44.788;2024-01-06T03:52:22;994;;;21.7;41.2
76046;BME280;64741;41.730;44.788;2024-01-06T03:57:22;994.1;;;21.7;41.3
76046;BME280;64741;41.730;44.788;2024-01-06T04:02:24;994.2;;;21.7;41.4
76046;BME280;64741;41.730;44.788;2024-01-06T04:07:26;994.2;;;21.7;41.1
76046;BME280;64741;41.730;44.788;2024-01-06T04:12:02;994.2;;;21.7;40.8
76046;BME280;64741;41.730;44.788;2024-01-06T04:17:24;994.3;;;21.7;40.7
76046;BME280;64741;41.730;44.788;2024-01-06T04:22:22;994.5;;;21.7;40.5
76046;BME280;64741;41.730;44.788;2024-01-06T04:27:24;994.5;;;21.7;40.5
76046;BME280;64741;41.730;44.788;2024-01-06T04:32:22;994.6;;;21.6;40.5
76046;BME280;64741;41.730;44.788;2024-01-06T04:37:16;994.7;;;21.7;40.5
76046;BME280;64741;41.730;44.788;2024-01-06T04:42:10;994.8;;;21.7;40.4
76046;BME280;64741;41.730;44.788;2024-01-06T04:47:02;994.9;;;21.6;40.2
76046;BME280;64741;41.730;44.788;2024-01-06T04:52:16;994.9;;;21.6;40.1
76046;BME280;64741;41.730;44.788;2024-01-06T04:57:24;994.9;;;21.6;40
76046;BME280;64741;41.730;44.788;2024-01-06T05:02:24;995.2;;;21.6;40
76046;BME280;64741;41.730;44.788;2024-01-06T05:07:24;995.2;;;21.6;40
76046;BME280;64741;41.730;44.788;2024-01-06T05:12:16;995.3;;;21.6;40.1
76046;BME280;64741;41.730;44.788;2024-01-06T05:17:14;995.3;;;21.6;40.1
76046;BME280;64741;41.730;44.788;2024-01-06T05:22:14;995.3;;;21.6;40.2
76046;BME280;64741;41.730;44.788;2024-01-06T05:27:14;995.4;;;21.6;40.3
76046;BME280;64741;41.730;44.788;2024-01-06T05:32:22;995.4;;;21.6;40.4
76046;BME280;64741;41.730;44.788;2024-01-06T05:37:20;995.5;;;21.6;40.2
76046;BME280;64741;41.730;44.788;2024-01-06T05:42:26;995.6;;;21.6;40.2
76046;BME280;64741;41.730;44.788;2024-01-06T05:47:12;995.7;;;21.6;40.3
76046;BME280;64741;41.730;44.788;2024-01-06T05:52:24;995.8;;;21.6;40.4
76046;BME280;64741;41.730;44.788;2024-01-06T05:57:26;995.9;;;21.6;40.3
76046;BME280;64741;41.730;44.788;2024-01-06T06:02:16;995.9;;;21.6;40.3
76046;BME280;64741;41.730;44.788;2024-01-06T06:07:24;996;;;21.6;40.5
76046;BME280;64741;41.730;44.788;2024-01-06T06:12:16;995.9;;;21.6;40.6
76046;BME280;64741;41.730;44.788;2024-01-06T06:17:26;996;;;21.6;40.4
76046;BME280;64741;41.730;44.788;2024-01-06T06:22:22;995.9;;;21.6;40.4
76046;BME280;64741;41.730;44.788;2024-01-06T06:27:22;996;;;21.6;40.5
76046;BME280;64741;41.730;44.788;2024-01-06T06:32:14;996;;;21.6;40.5
76046;BME280;64741;41.730;44.788;2024-01-06T06:37:24;996;;;21.6;40.5
76046;BME280;64741;41.730;44.788;2024-01-06T06:42:24;996;;;21.6;40.5
76046;BME280;64741;41.730;44.788;2024-01-06T06:47:18;996.1;;;21.6;40.6
76046;BME280;64741;41.730;44.788;2024-01-06T06:52:04;996.1;;;21.6;40.6
76046;BME280;64741;41.730;44.788;2024-01-06T06:57:24;996.1;;;21.6;40.7
76046;BME280;64741;41.730;44.788;2024-01-06T07:02:12;996.2;;;21.6;40.9
76046;BME280;64741;41.730;44.788;2024-01-06T07:07:14;996.1;;;21.6;41
76046;BME280;64741;41.730;44.788;2024-01-06T07:12:22;996.2;;;21.7;41.1
76046;BME280;64741;41.730;44.788;2024-01-06T07:17:24;996.2;;;21.7;41.4
76046;BME280;64741;41.730;44.788;2024-01-06T07:22:14;996.2;;;21.7;41.5
76046;BME280;64741;41.730;44.788;2024-01-06T07:27:22;996.2;;;21.7;41.6
76046;BME280;64741;41.730;44.788;2024-01-06T07:31:40;996.2;;;21.7;41.5
76046;BME280;64741;41.730;44.788;2024-01-06T07:37:26;996.1;;;21.7;41.5
76046;BME280;64741;41.730;44.788;2024-01-06T07:42:22;996.1;;;21.7;41.6
76046;BME280;64741;41.730;44.788;2024-01-06T07:47:26;996;;;21.7;41.5
76046;BME280;64741;41.730;44.788;2024-01-06T07:52:24;996;;;21.8;41.5
76046;BME280;64741;41.730;44.788;2024-01-06T07:57:03;996.1;;;21.8;41.6
76046;BME280;64741;41.730;44.788;2024-01-06T08:02:24;996.1;;;21.8;41.4
76046;BME280;64741;41.730;44.788;2024-01-06T08:07:18;996.2;;;21.8;41.3
76046;BME280;64741;41.730;44.788;2024-01-06T08:12:24;996.2;;;21.8;41.3
76046;BME280;64741;41.730;44.788;2024-01-06T08:17:22;996.3;;;21.8;41.4
76046;BME280;64741;41.730;44.788;2024-01-06T08:22:10;996.4;;;21.8;41.2
76046;BME280;64741;41.730;44.788;2024-01-06T08:27:12;996.6;;;21.8;41.3
76046;BME280;64741;41.730;44.788;2024-01-06T08:32:02;996.5;;;21.8;41.7
76046;BME280;64741;41.730;44.788;2024-01-06T08:37:24;996.5;;;21.9;42
76046;BME280;64741;41.730;44.788;2024-01-06T08:42:24;996.5;;;21.9;42.2
76046;BME280;64741;41.730;44.788;2024-01-06T08:47:22;996.6;;;22;42.4
76046;BME280;64741;41.730;44.788;2024-01-06T08:52:24;996.6;;;22;42.3
76046;BME280;64741;41.730;44.788;2024-01-06T08:57:22;996.6;;;22.1;42.5
76046;BME280;64741;41.730;44.788;2024-01-06T09:02:12;996.6;;;22.1;42.9
76046;BME280;64741;41.730;44.788;2024-01-06T09:07:22;996.7;;;22.1;42.8
76046;BME280;64741;41.730;44.788;2024-01-06T09:12:22;996.7;;;22.1;42.4
76046;BME280;64741;41.730;44.788;2024-01-06T09:17:10;996.7;;;22.1;42.4
76046;BME280;64741;41.730;44.788;2024-01-06T09:22:24;996.7;;;22.1;42.4
76046;BME280;64741;41.730;44.788;2024-01-06T09:26:54;996.7;;;22.1;42.4
76046;BME280;64741;41.730;44.788;2024-01-06T09:32:26;996.7;;;22.1;42.7
76046;BME280;64741;41.730;44.788;2024-01-06T09:37:10;996.7;;;22.1;42.9
76046;BME280;64741;41.730;44.788;2024-01-06T09:42:12;996.7;;;22.1;42.4
76046;BME280;64741;41.730;44.788;2024-01-06T09:46:42;996.5;;;22.1;42.3
76046;BME280;64741;41.730;44.788;2024-01-06T09:52:13;996.5;;;22.2;42.3
76046;BME280;64741;41.730;44.788;2024-01-06T09:57:18;996.5;;;22.1;42.3
76046;BME280;64741;41.730;44.788;2024-01-06T10:02:20;996.5;;;22.1;42.3
76046;BME280;64741;41.730;44.788;2024-01-06T10:07:25;996.6;;;22.1;42.5
76046;BME280;64741;41.730;44.788;2024-01-06T10:12:14;996.6;;;22.1;42.6
76046;BME280;64741;41.730;44.788;2024-01-06T10:17:20;996.7;;;22.1;42.2
76046;BME280;64741;41.730;44.788;2024-01-06T10:22:26;996.7;;;22.1;42.5
76046;BME280;64741;41.730;44.788;2024-01-06T10:27:12;996.7;;;22.1;42.5
76046;BME280;64741;41.730;44.788;2024-01-06T10:32:24;996.6;;;22.1;42.4
76046;BME280;64741;41.730;44.788;2024-01-06T10:37:12;996.6;;;22.1;42
76046;BME280;64741;41.730;44.788;2024-01-06T10:42:24;996.6;;;22;42
76046;BME280;64741;41.730;44.788;2024-01-06T10:47:24;996.5;;;22;42.1
76046;BME280;64741;41.730;44.788;2024-01-06T10:52:18;996.5;;;22;41.8
76046;BME280;64741;41.730;44.788;2024-01-06T10:57:10;996.6;;;22;41.8
76046;BME280;64741;41.730;44.788;2024-01-06T11:02:10;996.6;;;22;41.8
76046;BME280;64741;41.730;44.788;2024-01-06T11:07:24;996.7;;;22;42
76046;BME280;64741;41.730;44.788;2024-01-06T11:12:20;996.7;;;22;42.4
76046;BME280;64741;41.730;44.788;2024-01-06T11:17:56;996.7;;;22;42.6
76046;BME280;64741;41.730;44.788;2024-01-06T11:22:25;996.6;;;22;43
76046;BME280;64741;41.730;44.788;2024-01-06T11:27:23;996.5;;;22;43.2
76046;BME280;64741;41.730;44.788;2024-01-06T11:32:20;996.4;;;22;43.3
76046;BME280;64741;41.730;44.788;2024-01-06T11:37:23;996.3;;;21.9;43.4
76046;BME280;64741;41.730;44.788;2024-01-06T11:42:24;996.4;;;22;43.3
76046;BME280;64741;41.730;44.788;2024-01-06T11:47:14;996.6;;;21.9;43
76046;BME280;64741;41.730;44.788;2024-01-06T11:52:20;996.7;;;21.9;43
76046;BME280;64741;41.730;44.788;2024-01-06T11:57:20;996.6;;;21.9;43.3
76046;BME280;64741;41.730;44.788;2024-01-06T12:02:24;996.5;;;21.9;43.4
76046;BME280;64741;41.730;44.788;2024-01-06T12:07:15;996.6;;;21.9;43.5
76046;BME280;64741;41.730;44.788;2024-01-06T12:12:20;996.6;;;22;44
76046;BME280;64741;41.730;44.788;2024-01-06T12:17:16;996.7;;;22;44.1
76046;BME280;64741;41.730;44.788;2024-01-06T12:22:20;996.7;;;22;43.8
76046;BME280;64741;41.730;44.788;2024-01-06T12:27:02;996.8;;;22;43.3
76046;BME280;64741;41.730;44.788;2024-01-06T12:32:12;996.8;;;22;43.5
76046;BME280;64741;41.730;44.788;2024-01-06T12:37:22;996.9;;;22;43.4
76046;BME280;64741;41.730;44.788;2024-01-06T12:42:24;997.1;;;22;43.4
76046;BME280;64741;41.730;44.788;2024-01-06T12:47:10;997.3;;;22;43.5
76046;BME280;64741;41.730;44.788;2024-01-06T12:52:26;997.5;;;22;43.7
76046;BME280;64741;41.730;44.788;2024-01-06T12:57:16;997.6;;;22.1;44.5
76046;BME280;64741;41.730;44.788;2024-01-06T13:02:22;997.7;;;22.2;44.9
76046;BME280;64741;41.730;44.788;2024-01-06T13:06:50;997.7;;;22.3;45.7
76046;BME280;64741;41.730;44.788;2024-01-06T13:12:22;997.8;;;22.3;45.8
76046;BME280;64741;41.730;44.788;2024-01-06T13:17:26;997.8;;;22.4;45.5
76046;BME280;64741;41.730;44.788;2024-01-06T13:22:14;997.9;;;22.5;45.2
76046;BME280;64741;41.730;44.788;2024-01-06T13:27:18;997.9;;;22.5;44.8
76046;BME280;64741;41.730;44.788;2024-01-06T13:32:24;997.8;;;22.5;44.8
76046;BME280;64741;41.730;44.788;2024-01-06T13:37:18;997.7;;;22.5;45
76046;BME280;64741;41.730;44.788;2024-01-06T13:42:12;997.7;;;22.5;45.4
76046;BME280;64741;41.730;44.788;2024-01-06T13:47:14;997.8;;;22.5;45.7
76046;BME280;64741;41.730;44.788;2024-01-06T13:52:22;998;;;22.6;46.1
76046;BME280;64741;41.730;44.788;2024-01-06T13:57:24;998.1;;;22.6;45.6
76046;BME280;64741;41.730;44.788;2024-01-06T14:02:12;998.1;;;22.6;45.2
76046;BME280;64741;41.730;44.788;2024-01-06T14:06:52;998;;;22.6;44.9
76046;BME280;64741;41.730;44.788;2024-01-06T14:12:16;997.9;;;22.6;44.6
76046;BME280;64741;41.730;44.788;2024-01-06T14:17:22;997.9;;;22.6;44.1
76046;BME280;64741;41.730;44.788;2024-01-06T14:21:50;997.9;;;22.6;44
76046;BME280;64741;41.730;44.788;2024-01-06T14:27:24;997.9;;;22.6;43.7
76046;BME280;64741;41.730;44.788;2024-01-06T14:32:28;997.8;;;22.6;43.5
76046;BME280;64741;41.730;44.788;2024-01-06T14:37:16;997.9;;;22.5;43.2
76046;BME280;64741;41.730;44.788;2024-01-06T14:42:22;997.9;;;22.5;43
76046;BME280;64741;41.730;44.788;2024-01-06T14:47:10;998;;;22.5;42.9
76046;BME280;64741;41.730;44.788;2024-01-06T14:51:54;998.1;;;22.5;42.7
76046;BME280;64741;41.730;44.788;2024-01-06T14:57:24;998.1;;;22.5;42.5
76046;BME280;64741;41.730;44.788;2024-01-06T15:02:02;998.1;;;22.4;42.3
76046;BME280;64741;41.730;44.788;2024-01-06T15:07:14;998.3;;;22.4;42.4
76046;BME280;64741;41.730;44.788;2024-01-06T15:12:24;998.5;;;22.4;42.4
76046;BME280;64741;41.730;44.788;2024-01-06T15:17:24;998.6;;;22.4;42.5
76046;BME280;64741;41.730;44.788;2024-01-06T15:22:27;998.8;;;22.4;42.6
76046;BME280;64741;41.730;44.788;2024-01-06T15:27:24;998.7;;;22.4;42.7
76046;BME280;64741;41.730;44.788;2024-01-06T15:32:05;998.7;;;22.4;42.7
76046;BME280;64741;41.730;44.788;2024-01-06T15:37:29;998.6;;;22.4;42.6
76046;BME280;64741;41.730;44.788;2024-01-06T15:42:14;998.6;;;22.4;42.6
76046;BME280;64741;41.730;44.788;2024-01-06T15:47:24;998.7;;;22.3;42.8
76046;BME280;64741;41.730;44.788;2024-01-06T15:52:14;998.7;;;22.4;42.9
76046;BME280;64741;41.730;44.788;2024-01-06T15:57:16;998.6;;;22.3;42.9
76046;BME280;64741;41.730;44.788;2024-01-06T16:02:24;998.7;;;22.3;42.9
76046;BME280;64741;41.730;44.788;2024-01-06T16:07:24;998.8;;;22.3;42.9
76046;BME280;64741;41.730;44.788;2024-01-06T16:12:28;998.9;;;22.3;43
76046;BME280;64741;41.730;44.788;2024-01-06T16:17:24;999;;;22.3;43.1
76046;BME280;64741;41.730;44.788;2024-01-06T16:22:24;999;;;22.3;43.1
76046;BME280;64741;41.730;44.788;2024-01-06T16:27:28;998.9;;;22.4;43.1
76046;BME280;64741;41.730;44.788;2024-01-06T16:32:05;999;;;22.4;42.8
76046;BME280;64741;41.730;44.788;2024-01-06T16:37:24;999;;;22.4;42.6
76046;BME280;64741;41.730;44.788;2024-01-06T16:41:54;999;;;22.4;42.8
76046;BME280;64741;41.730;44.788;2024-01-06T16:47:14;999;;;22.4;43.1
76046;BME280;64741;41.730;44.788;2024-01-06T16:52:24;998.9;;;22.4;43.4
76046;BME280;64741;41.730;44.788;2024-01-06T16:57:16;999;;;22.4;43.4
76046;BME280;64741;41.730;44.788;2024-01-06T17:02:28;999;;;22.4;43.4
76046;BME280;64741;41.730;44.788;2024-01-06T17:07:22;999;;;22.4;43.4
76046;BME280;64741;41.730;44.788;2024-01-06T17:12:22;999;;;22.4;43.4
76046;BME280;64741;41.730;44.788;2024-01-06T17:17:26;999;;;22.4;43.4
76046;BME280;64741;41.730;44.788;2024-01-06T17:22:16;999;;;22.5;43.3
76046;BME280;64741;41.730;44.788;2024-01-06T17:27:24;999;;;22.5;43.2
76046;BME280;64741;41.730;44.788;2024-01-06T17:32:16;999.1;;;22.5;43.3
76046;BME280;64741;41.730;44.788;2024-01-06T17:36:36;999.1;;;22.5;43.2
76046;BME280;64741;41.730;44.788;2024-01-06T17:42:24;999.2;;;22.5;43.3
76046;BME280;64741;41.730;44.788;2024-01-06T17:47:02;999.1;;;22.5;43.2
76046;BME280;64741;41.730;44.788;2024-01-06T17:52:28;999.2;;;22.6;43.3
76046;BME280;64741;41.730;44.788;2024-01-06T17:57:24;999.1;;;22.6;43.4
76046;BME280;64741;41.730;44.788;2024-01-06T18:02:24;999.1;;;22.6;43.3
76046;BME280;64741;41.730;44.788;2024-01-06T18:07:28;999.1;;;22.6;43.4
76046;BME280;64741;41.730;44.788;2024-01-06T18:12:16;999.1;;;22.6;43.4
76046;BME280;64741;41.730;44.788;2024-01-06T18:17:24;999.1;;;22.7;43.2
76046;BME280;64741;41.730;44.788;2024-01-06T18:22:16;999;;;22.7;43.1
76046;BME280;64741;41.730;44.788;2024-01-06T18:27:16;999;;;22.7;43.4
76046;BME280;64741;41.730;44.788;2024-01-06T18:32:24;999;;;22.7;43.8
76046;BME280;64741;41.730;44.788;2024-01-06T18:37:24;999;;;22.8;43.8
76046;BME280;64741;41.730;44.788;2024-01-06T18:42:20;998.9;;;22.8;43.7
76046;BME280;64741;41.730;44.788;2024-01-06T18:47:24;998.9;;;22.8;43.5
76046;BME280;64741;41.730;44.788;2024-01-06T18:52:22;998.8;;;22.8;43.5
76046;BME280;64741;41.730;44.788;2024-01-06T18:57:14;998.8;;;22.8;43.4
76046;BME280;64741;41.730;44.788;2024-01-06T19:02:16;998.9;;;22.8;43.4
76046;BME280;64741;41.730;44.788;2024-01-06T19:07:24;999;;;22.9;43.3
76046;BME280;64741;41.730;44.788;2024-01-06T19:12:14;999;;;22.9;43.4
76046;BME280;64741;41.730;44.788;2024-01-06T19:17:25;999.1;;;22.9;43.3
76046;BME280;64741;41.730;44.788;2024-01-06T19:22:16;999.1;;;22.9;43.2
76046;BME280;64741;41.730;44.788;2024-01-06T19:27:16;999.2;;;22.9;43.1
76046;BME280;64741;41.730;44.788;2024-01-06T19:32:24;999.2;;;22.9;43.1
76046;BME280;64741;41.730;44.788;2024-01-06T19:37:04;999.2;;;22.9;43
76046;BME280;64741;41.730;44.788;2024-01-06T19:42:26;999.2;;;22.9;43
76046;BME280;64741;41.730;44.788;2024-01-06T19:47:24;999.3;;;22.9;42.9
76046;BME280;64741;41.730;44.788;2024-01-06T19:52:22;999.4;;;22.8;42.9
76046;BME280;64741;41.730;44.788;2024-01-06T19:57:24;999.4;;;22.8;42.9
76046;BME280;64741;41.730;44.788;2024-01-06T20:02:16;999.4;;;22.8;42.9
76046;BME280;64741;41.730;44.788;2024-01-06T20:07:24;999.3;;;22.8;42.8
76046;BME280;64741;41.730;44.788;2024-01-06T20:12:16;999.3;;;22.8;42.8
76046;BME280;64741;41.730;44.788;2024-01-06T20:17:14;999.3;;;22.8;42.8
76046;BME280;64741;41.730;44.788;2024-01-06T20:22:24;999.4;;;22.8;42.8
76046;BME280;64741;41.730;44.788;2024-01-06T20:27:24;999.4;;;22.8;42.9
76046;BME280;64741;41.730;44.788;2024-01-06T20:32:28;999.4;;;22.8;42.8
76046;BME280;64741;41.730;44.788;2024-01-06T20:37:24;999.4;;;22.8;42.8
76046;BME280;64741;41.730;44.788;2024-01-06T20:42:22;999.6;;;22.8;42.9
76046;BME280;64741;41.730;44.788;2024-01-06T20:47:06;999.6;;;22.8;42.9
76046;BME280;64741;41.730;44.788;2024-01-06T20:52:16;999.6;;;22.8;42.8
76046;BME280;64741;41.730;44.788;2024-01-06T20:57:24;999.6;;;22.8;42.7
76046;BME280;64741;41.730;44.788;2024-01-06T21:02:14;999.5;;;22.8;42.4
76046;BME280;64741;41.730;44.788;2024-01-06T21:06:34;999.5;;;22.7;42.3
76046;BME280;64741;41.730;44.788;2024-01-06T21:12:24;999.5;;;22.7;42.3
76046;BME280;64741;41.730;44.788;2024-01-06T21:17:22;999.5;;;22.7;42.2
76046;BME280;64741;41.730;44.788;2024-01-06T21:22:03;999.4;;;22.7;42.4
76046;BME280;64741;41.730;44.788;2024-01-06T21:27:24;999.5;;;22.7;42.7
76046;BME280;64741;41.730;44.788;2024-01-06T21:32:22;999.4;;;22.7;43
76046;BME280;64741;41.730;44.788;2024-01-06T21:37:28;999.5;;;22.7;43.3
76046;BME280;64741;41.730;44.788;2024-01-06T21:42:08;999.5;;;22.6;43.7
76046;BME280;64741;41.730;44.788;2024-01-06T21:47:24;999.5;;;22.7;44
76046;BME280;64741;41.730;44.788;2024-01-06T21:52:16;999.5;;;22.7;44.3
76046;BME280;64741;41.730;44.788;2024-01-06T21:57:16;999.5;;;22.7;44.4
76046;BME280;64741;41.730;44.788;2024-01-06T22:02:24;999.4;;;22.7;44.2
76046;BME280;64741;41.730;44.788;2024-01-06T22:07:24;999.4;;;22.7;44.1
76046;BME280;64741;41.730;44.788;2024-01-06T22:12:28;999.4;;;22.7;43.9
76046;BME280;64741;41.730;44.788;2024-01-06T22:17:24;999.4;;;22.7;43.9
76046;BME280;64741;41.730;44.788;2024-01-06T22:22:24;999.4;;;22.7;43.8
76046;BME280;64741;41.730;44.788;2024-01-06T22:27:28;999.4;;;22.7;43.8
76046;BME280;64741;41.730;44.788;2024-01-06T22:32:16;999.3;;;22.7;43.7
76046;BME280;64741;41.730;44.788;2024-01-06T22:37:02;999.3;;;22.7;43.6
76046;BME280;64741;41.730;44.788;2024-01-06T22:42:17;999.4;;;22.7;43.5
76046;BME280;64741;41.730;44.788;2024-01-06T22:47:04;999.4;;;22.6;43.4
76046;BME280;64741;41.730;44.788;2024-01-06T22:52:24;999.4;;;22.6;43.3
76046;BME280;64741;41.730;44.788;2024-01-06T22:57:24;999.4;;;22.6;43.1
76046;BME280;64741;41.730;44.788;2024-01-06T23:02:28;999.4;;;22.6;43.2
76046;BME280;64741;41.730;44.788;2024-01-06T23:07:22;999.5;;;22.6;43.1
76046;BME280;64741;41.730;44.788;2024-01-06T23:12:24;999.5;;;22.6;43.3
76046;BME280;64741;41.730;44.788;2024-01-06T23:17:28;999.5;;;22.6;43.4
76046;BME280;64741;41.730;44.788;2024-01-06T23:22:16;999.5;;;22.6;43.4
76046;BME280;64741;41.730;44.788;2024-01-06T23:27:24;999.5;;;22.6;43.4
76046;BME280;64741;41.730;44.788;2024-01-06T23:32:16;999.5;;;22.6;43.5
76046;BME280;64741;41.730;44.788;2024-01-06T23:37:16;999.5;;;22.6;43.2
76046;BME280;64741;41.730;44.788;2024-01-06T23:42:24;999.5;;;22.6;43
76046;BME280;64741;41.730;44.788;2024-01-06T23:47:24;999.4;;;22.6;42.9
76046;BME280;64741;41.730;44.788;2024-01-06T23:52:25;999.5;;;22.6;42.8
76046;BME280;64741;41.730;44.788;2024-01-06T23:57:28;999.5;;;22.6;42.9
